Time;durP1;ratioP1;P1;durP2;ratioP2;P2;SDS_P1;SDS_P2;PMS_P1;PMS_P2;Temp;Humidity;BMP_temperature;BMP_pressure;BME280_temperature;BME280_humidity;BME280_pressure;Samples;Min_cycle;Max_cycle;Signal;HPM_P1;HPM_P2
2022/02/16 00:00:14;;;;;;;12.98;9.55;;;;;;;8.13;97.24;100206.97;5056680;28;20395;-74
2022/02/16 00:02:40;;;;;;;12.30;9.70;;;;;;;8.17;97.31;100199.69;5056593;28;20040;-74
2022/02/16 00:05:11;;;;;;;14.85;9.70;;;;;;;8.06;97.21;100193.25;5038732;28;20024;-74
2022/02/16 00:07:39;;;;;;;14.68;9.68;;;;;;;8.08;97.83;100203.34;5056556;28;20025;-74
2022/02/16 00:10:06;;;;;;;12.63;9.35;;;;;;;8.13;97.92;100199.22;5038500;28;20031;-73
2022/02/16 00:12:31;;;;;;;11.05;8.10;;;;;;;8.14;97.75;100193.13;5056209;28;20049;-74
2022/02/16 00:14:56;;;;;;;10.27;8.60;;;;;;;8.20;97.49;100193.34;5056391;28;20025;-74
2022/02/16 00:17:22;;;;;;;11.57;7.90;;;;;;;8.22;97.24;100197.31;5056515;28;20032;-74
2022/02/16 00:19:47;;;;;;;10.20;7.88;;;;;;;8.16;97.57;100185.19;5056326;28;20028;-73
2022/02/16 00:22:12;;;;;;;10.13;7.55;;;;;;;8.10;97.49;100175.66;5038312;28;20108;-73
2022/02/16 00:24:38;;;;;;;10.05;8.20;;;;;;;8.11;97.84;100175.47;5037922;28;20066;-73
2022/02/16 00:27:03;;;;;;;10.10;7.82;;;;;;;8.16;98.12;100169.75;5055574;28;20476;-73
2022/02/16 00:29:28;;;;;;;10.18;7.85;;;;;;;8.17;97.14;100160.25;5055494;28;20037;-73
2022/02/16 00:31:53;;;;;;;11.23;7.88;;;;;;;8.16;97.32;100138.88;5056077;28;20067;-73
2022/02/16 00:34:19;;;;;;;11.88;7.53;;;;;;;8.11;97.84;100147.16;5038144;28;20460;-74
2022/02/16 00:36:44;;;;;;;9.80;7.22;;;;;;;8.19;98.16;100148.00;5037997;28;20116;-73
2022/02/16 00:39:09;;;;;;;9.48;6.35;;;;;;;8.08;98.33;100141.56;5055907;28;20048;-73
2022/02/16 00:41:34;;;;;;;9.13;7.13;;;;;;;8.10;98.13;100134.47;5055932;28;20029;-73
2022/02/16 00:44:00;;;;;;;9.90;7.38;;;;;;;8.18;97.66;100126.63;5037945;28;20024;-74
2022/02/16 00:46:25;;;;;;;11.48;7.20;;;;;;;8.04;99.18;100124.94;5055820;28;20028;-74
2022/02/16 00:48:51;;;;;;;9.55;7.03;;;;;;;8.12;98.39;100128.16;5055740;28;20025;-73
2022/02/16 00:51:16;;;;;;;9.52;7.18;;;;;;;8.06;97.96;100118.63;5037877;28;20423;-73
2022/02/16 00:53:41;;;;;;;9.43;7.35;;;;;;;8.17;98.94;100119.91;5055677;28;20048;-73
2022/02/16 00:56:07;;;;;;;8.80;6.60;;;;;;;8.07;98.31;100112.47;5037683;28;20043;-72
2022/02/16 00:58:32;;;;;;;9.77;6.95;;;;;;;8.10;98.67;100101.03;5036991;28;20082;-74
2022/02/16 01:00:57;;;;;;;8.13;6.53;;;;;;;8.04;98.48;100105.13;5037678;28;20028;-74
2022/02/16 01:03:23;;;;;;;9.75;7.13;;;;;;;8.11;98.81;100093.13;5055436;28;20029;-75
2022/02/16 01:05:48;;;;;;;9.25;7.03;;;;;;;8.12;99.15;100087.00;5037527;28;20501;-74
2022/02/16 01:08:14;;;;;;;8.10;6.55;;;;;;;8.03;99.17;100084.75;5037397;28;20029;-74
2022/02/16 01:10:41;;;;;;;9.07;6.90;;;;;;;8.07;99.10;100083.38;5055287;28;20021;-74
2022/02/16 01:13:07;;;;;;;8.10;6.80;;;;;;;8.10;98.84;100075.28;5055173;28;20040;-74
2022/02/16 01:15:32;;;;;;;9.30;7.10;;;;;;;8.05;99.63;100072.47;5037399;28;20031;-74
2022/02/16 01:17:58;;;;;;;11.25;7.60;;;;;;;8.04;99.21;100071.69;5055209;28;20020;-74
2022/02/16 01:20:23;;;;;;;11.02;7.50;;;;;;;8.04;99.20;100070.91;5037225;28;20083;-74
2022/02/16 01:22:49;;;;;;;10.60;7.45;;;;;;;8.07;98.90;100073.09;5055160;28;20028;-74
2022/02/16 01:25:14;;;;;;;10.20;7.68;;;;;;;8.04;98.69;100076.03;5055082;28;20028;-74
2022/02/16 01:27:39;;;;;;;10.65;8.20;;;;;;;8.09;99.02;100066.00;5037059;28;20078;-74
2022/02/16 01:30:07;;;;;;;9.18;7.88;;;;;;;8.14;98.96;100064.44;5054843;28;20471;-71
2022/02/16 01:32:32;;;;;;;12.48;8.57;;;;;;;8.10;98.39;100057.28;5037025;28;20033;-71
2022/02/16 01:34:57;;;;;;;9.85;8.48;;;;;;;8.10;98.25;100047.78;5054919;28;20025;-71
2022/02/16 01:37:23;;;;;;;10.90;8.18;;;;;;;8.10;98.99;100037.47;5036993;28;20124;-71
2022/02/16 01:39:48;;;;;;;10.65;7.97;;;;;;;8.05;98.67;100029.53;5054782;28;20029;-71
2022/02/16 01:42:18;;;;;;;12.30;8.32;;;;;;;8.12;99.03;100022.66;5036933;28;20031;-71
2022/02/16 01:44:44;;;;;;;10.90;8.15;;;;;;;8.11;97.94;100018.50;5036982;28;20021;-71
2022/02/16 01:47:10;;;;;;;9.55;7.38;;;;;;;8.08;98.46;100011.13;5036793;28;20368;-71
2022/02/16 01:49:37;;;;;;;10.48;7.40;;;;;;;8.14;98.22;100015.53;5036765;28;20028;-71
2022/02/16 01:52:04;;;;;;;11.40;7.85;;;;;;;8.08;98.06;100005.19;5054613;28;20563;-70
2022/02/16 01:54:29;;;;;;;9.95;7.30;;;;;;;8.09;97.59;99999.88;5036746;28;20016;-72
2022/02/16 01:56:55;;;;;;;13.40;7.93;;;;;;;7.94;98.55;99996.63;5054177;28;20028;-71
2022/02/16 01:59:23;;;;;;;11.75;7.60;;;;;;;8.03;98.73;99989.53;5054435;28;20105;-71
2022/02/16 02:01:49;;;;;;;10.48;7.72;;;;;;;8.08;98.75;99987.19;5054426;28;20025;-71
2022/02/16 02:04:16;;;;;;;13.27;8.07;;;;;;;8.07;98.48;99988.16;5054207;28;20506;-71
2022/02/16 02:06:42;;;;;;;12.48;7.80;;;;;;;8.03;98.18;99979.25;5036596;28;20081;-71
2022/02/16 02:09:07;;;;;;;10.80;7.63;;;;;;;8.03;98.35;99966.38;5035424;28;20028;-70
2022/02/16 02:11:33;;;;;;;10.75;7.22;;;;;;;8.06;98.02;99961.66;5054198;28;20025;-71
2022/02/16 02:14:01;;;;;;;12.98;7.35;;;;;;;8.06;98.73;99961.66;5036154;28;20104;-70
2022/02/16 02:16:27;;;;;;;11.40;7.03;;;;;;;7.99;98.90;99952.28;5054089;28;20086;-72
2022/02/16 02:18:53;;;;;;;9.70;7.05;;;;;;;8.06;98.33;99959.06;5054087;28;20021;-71
2022/02/16 02:21:19;;;;;;;11.25;7.10;;;;;;;8.03;98.55;99950.94;5053976;28;20047;-70
2022/02/16 02:23:46;;;;;;;10.40;6.63;;;;;;;8.03;98.49;99938.88;5035811;28;20480;-70
2022/02/16 02:26:11;;;;;;;12.02;6.60;;;;;;;8.03;98.68;99931.16;5053936;28;20021;-69
2022/02/16 02:28:37;;;;;;;11.40;6.32;;;;;;;7.99;99.24;99929.13;5035953;28;20051;-69
2022/02/16 02:31:03;;;;;;;11.32;6.35;;;;;;;8.01;99.46;99932.31;5035956;28;20495;-69
2022/02/16 02:33:28;;;;;;;10.32;6.05;;;;;;;8.04;98.88;99919.06;5053785;28;20376;-69
2022/02/16 02:35:54;;;;;;;11.43;6.65;;;;;;;8.07;99.21;99927.19;5053678;28;20024;-70
2022/02/16 02:38:19;;;;;;;13.02;6.50;;;;;;;8.04;99.73;99917.28;5053694;28;20028;-71
2022/02/16 02:40:51;;;;;;;10.00;6.20;;;;;;;8.08;99.74;99917.69;5053628;28;20230;-70
2022/02/16 02:43:16;;;;;;;12.00;6.22;;;;;;;8.08;100.00;99923.63;5053516;28;20029;-71
2022/02/16 02:45:42;;;;;;;8.88;6.75;;;;;;;8.16;100.00;99914.19;5053615;28;20036;-70
2022/02/16 02:48:07;;;;;;;10.25;7.00;;;;;;;8.17;99.89;99901.13;5053535;28;20538;-71
2022/02/16 02:50:32;;;;;;;11.25;7.00;;;;;;;8.18;100.00;99910.44;5053514;28;20032;-72
2022/02/16 02:52:57;;;;;;;10.88;7.57;;;;;;;8.18;99.75;99907.06;5053517;28;20052;-71
2022/02/16 02:55:23;;;;;;;13.90;7.82;;;;;;;8.13;100.00;99908.41;5035471;28;20021;-71
2022/02/16 02:57:48;;;;;;;12.30;8.05;;;;;;;8.10;100.00;99888.22;5053446;28;20032;-71
2022/02/16 03:00:15;;;;;;;13.85;7.90;;;;;;;8.13;100.00;99882.69;5035412;28;20031;-71
2022/02/16 03:02:40;;;;;;;12.40;8.77;;;;;;;8.24;99.79;99872.84;5053211;28;20025;-71
2022/02/16 03:05:06;;;;;;;13.48;8.27;;;;;;;8.25;99.86;99874.41;5053373;28;20013;-71
2022/02/16 03:07:31;;;;;;;17.20;9.18;;;;;;;8.15;100.00;99859.34;5035412;28;20028;-71
2022/02/16 03:09:57;;;;;;;12.52;8.40;;;;;;;8.18;100.00;99864.09;5035246;28;20495;-70
2022/02/16 03:12:22;;;;;;;13.52;8.45;;;;;;;8.22;100.00;99860.16;5052914;28;20057;-71
2022/02/16 03:14:47;;;;;;;16.13;9.10;;;;;;;8.21;100.00;99845.69;5035364;28;20059;-71
2022/02/16 03:17:13;;;;;;;15.68;8.80;;;;;;;8.23;100.00;99830.88;5053185;28;20029;-70
2022/02/16 03:19:38;;;;;;;12.55;7.88;;;;;;;8.25;100.00;99833.22;5035218;28;20464;-71
2022/02/16 03:22:04;;;;;;;15.38;7.25;;;;;;;8.23;100.00;99843.72;5052957;28;20060;-70
2022/02/16 03:24:29;;;;;;;12.75;7.65;;;;;;;8.28;100.00;99835.41;5035177;28;20070;-71
2022/02/16 03:26:55;;;;;;;12.77;7.70;;;;;;;8.30;100.00;99836.81;5053509;28;20527;-70
2022/02/16 03:29:20;;;;;;;12.77;7.93;;;;;;;8.29;100.00;99829.28;5053160;28;20369;-71
2022/02/16 03:31:46;;;;;;;13.40;8.00;;;;;;;8.33;100.00;99828.69;5053075;28;20100;-71
2022/02/16 03:34:13;;;;;;;14.63;8.20;;;;;;;8.34;100.00;99814.84;5052965;28;20387;-71
2022/02/16 03:36:38;;;;;;;13.77;8.65;;;;;;;8.35;100.00;99803.56;5035122;28;20056;-71
2022/02/16 03:39:03;;;;;;;15.30;8.48;;;;;;;8.36;99.87;99802.56;5035064;28;20610;-70
2022/02/16 03:41:29;;;;;;;15.25;8.50;;;;;;;8.29;100.00;99794.03;5053028;28;20063;-72
2022/02/16 03:43:54;;;;;;;14.05;9.18;;;;;;;8.34;100.00;99781.38;5052846;28;20025;-71
2022/02/16 03:46:19;;;;;;;11.80;8.20;;;;;;;8.32;99.98;99773.06;5052870;28;20029;-71
2022/02/16 03:48:44;;;;;;;12.38;8.07;;;;;;;8.32;99.97;99777.41;5052898;28;20056;-71
2022/02/16 03:51:10;;;;;;;14.75;7.90;;;;;;;8.35;100.00;99761.56;5034977;28;20025;-71
2022/02/16 03:53:35;;;;;;;12.57;7.85;;;;;;;8.36;100.00;99763.94;5034984;28;20032;-71
2022/02/16 03:56:01;;;;;;;11.15;7.88;;;;;;;8.39;100.00;99755.06;5034812;28;20090;-72
2022/02/16 03:58:26;;;;;;;11.93;7.70;;;;;;;8.46;99.37;99750.72;5052790;28;20029;-71
2022/02/16 04:00:52;;;;;;;10.95;6.63;;;;;;;8.45;98.88;99745.75;5034804;28;20040;-71
2022/02/16 04:03:17;;;;;;;10.95;7.07;;;;;;;8.47;98.72;99731.69;5052603;28;20025;-71
2022/02/16 04:05:42;;;;;;;8.05;6.18;;;;;;;8.46;98.39;99737.03;5034873;28;20036;-71
2022/02/16 04:08:09;;;;;;;7.88;5.55;;;;;;;8.49;98.61;99729.72;5052703;28;20028;-71
2022/02/16 04:10:35;;;;;;;10.48;5.93;;;;;;;8.56;97.66;99729.72;5052633;28;20082;-71
2022/02/16 04:13:00;;;;;;;9.13;5.68;;;;;;;8.57;97.50;99723.56;5052375;28;20044;-70
2022/02/16 04:15:26;;;;;;;10.57;6.10;;;;;;;8.51;97.56;99722.56;5034746;28;20025;-71
2022/02/16 04:17:51;;;;;;;8.07;5.38;;;;;;;8.57;97.22;99729.53;5034779;28;20021;-71
2022/02/16 04:20:17;;;;;;;12.00;5.68;;;;;;;8.65;96.96;99707.91;5034754;28;20048;-71
2022/02/16 04:22:44;;;;;;;8.93;5.43;;;;;;;8.57;96.82;99703.78;5052397;28;20064;-72
2022/02/16 04:25:10;;;;;;;7.78;5.30;;;;;;;8.57;96.96;99698.63;5052544;28;20085;-71
2022/02/16 04:27:36;;;;;;;9.07;5.13;;;;;;;8.57;95.89;99685.75;5052501;28;20021;-72
2022/02/16 04:30:02;;;;;;;6.78;4.75;;;;;;;8.57;96.18;99675.44;5052455;28;20029;-70
2022/02/16 04:32:28;;;;;;;6.60;4.97;;;;;;;8.57;95.60;99662.56;5035166;28;20472;-71
2022/02/16 04:34:53;;;;;;;7.07;4.43;;;;;;;8.56;95.87;99655.81;5056055;28;20040;-70
2022/02/16 04:37:18;;;;;;;8.95;4.63;;;;;;;8.48;96.32;99648.31;5038139;28;20025;-71
2022/02/16 04:39:44;;;;;;;5.57;4.18;;;;;;;8.54;96.40;99641.56;5038149;28;20025;-70
2022/02/16 04:42:09;;;;;;;6.15;4.85;;;;;;;8.38;97.73;99626.53;5038077;28;20086;-72
2022/02/16 04:44:34;;;;;;;6.18;5.03;;;;;;;8.39;98.18;99630.72;5037925;28;20096;-70
2022/02/16 04:47:00;;;;;;;7.72;5.57;;;;;;;8.36;99.02;99614.63;5037958;28;20503;-71
2022/02/16 04:49:25;;;;;;;7.53;5.70;;;;;;;8.39;99.23;99616.03;5037808;28;20044;-70
2022/02/16 04:51:50;;;;;;;9.45;6.15;;;;;;;8.45;98.83;99622.19;5037856;28;20553;-70
2022/02/16 04:54:16;;;;;;;8.45;6.25;;;;;;;8.32;99.51;99605.75;5055630;28;20025;-71
2022/02/16 04:56:41;;;;;;;7.75;6.35;;;;;;;8.39;100.00;99605.75;5055701;28;20029;-71
2022/02/16 04:59:06;;;;;;;9.07;6.28;;;;;;;8.37;99.93;99592.25;5055656;28;20039;-70
2022/02/16 05:01:31;;;;;;;8.27;6.65;;;;;;;8.33;100.00;99589.28;5055545;28;20049;-71
2022/02/16 05:03:57;;;;;;;10.48;7.25;;;;;;;8.34;100.00;99579.78;5055496;28;20465;-70
2022/02/16 05:06:23;;;;;;;10.25;8.15;;;;;;;8.39;100.00;99615.25;5037682;28;20039;-71
2022/02/16 05:08:48;;;;;;;10.23;7.93;;;;;;;8.39;100.00;99577.44;5037526;28;20082;-71
2022/02/16 05:11:13;;;;;;;10.55;8.60;;;;;;;8.37;100.00;99569.09;5055417;28;20403;-70
2022/02/16 05:13:39;;;;;;;11.05;8.65;;;;;;;8.33;100.00;99558.41;5037280;28;20128;-71
2022/02/16 05:16:04;;;;;;;12.13;8.50;;;;;;;8.36;100.00;99542.56;5055511;28;20364;-71
2022/02/16 05:18:33;;;;;;;10.70;8.38;;;;;;;8.38;100.00;99534.63;5037380;28;20055;-71
2022/02/16 05:20:58;;;;;;;12.50;8.02;;;;;;;8.40;100.00;99531.88;5037392;28;20013;-71
2022/02/16 05:23:23;;;;;;;11.50;8.55;;;;;;;8.40;100.00;99526.72;5055071;28;20488;-71
2022/02/16 05:25:48;;;;;;;10.65;7.88;;;;;;;8.39;100.00;99520.78;5055343;28;20021;-70
2022/02/16 05:28:14;;;;;;;11.52;8.07;;;;;;;8.41;100.00;99518.81;5055050;28;20086;-69
2022/02/16 05:30:39;;;;;;;7.50;5.80;;;;;;;8.43;100.00;99511.69;5037344;28;20158;-70
2022/02/16 05:33:04;;;;;;;9.65;7.53;;;;;;;8.45;100.00;99494.22;5054974;28;20017;-71
2022/02/16 05:35:29;;;;;;;9.35;7.32;;;;;;;8.47;100.00;99496.63;5037376;28;20024;-70
2022/02/16 05:37:55;;;;;;;8.65;7.50;;;;;;;8.45;100.00;99490.88;5054867;28;20028;-70
2022/02/16 05:40:20;;;;;;;8.23;6.95;;;;;;;8.49;100.00;99492.06;5036931;28;20498;-71
2022/02/16 05:42:45;;;;;;;8.50;6.28;;;;;;;8.55;100.00;99481.72;5054764;28;20025;-70
2022/02/16 05:45:11;;;;;;;7.15;6.00;;;;;;;8.59;100.00;99490.63;5054307;28;20021;-70
2022/02/16 05:47:36;;;;;;;7.20;6.20;;;;;;;8.61;100.00;99456.94;5054943;28;20017;-70
2022/02/16 05:50:01;;;;;;;7.93;5.80;;;;;;;8.63;100.00;99461.88;5054461;28;20053;-70
2022/02/16 05:52:27;;;;;;;6.88;5.93;;;;;;;8.64;100.00;99460.91;5036288;28;20451;-71
2022/02/16 05:54:52;;;;;;;6.60;5.82;;;;;;;8.68;100.00;99459.47;5036250;28;20031;-70
2022/02/16 05:57:18;;;;;;;6.50;5.55;;;;;;;8.71;100.00;99441.81;5053978;28;20059;-70
2022/02/16 05:59:43;;;;;;;6.40;5.60;;;;;;;8.68;100.00;99441.44;5038757;28;20115;-71
2022/02/16 06:02:08;;;;;;;6.60;5.47;;;;;;;8.62;100.00;99437.91;5058773;28;20017;-73
2022/02/16 06:04:35;;;;;;;5.97;5.28;;;;;;;8.63;100.00;99421.47;5039711;28;20155;-74
2022/02/16 06:07:00;;;;;;;6.90;5.53;;;;;;;8.70;100.00;99429.16;5039005;28;20147;-70
2022/02/16 06:09:27;;;;;;;6.72;5.95;;;;;;;8.74;100.00;99430.31;5036524;28;20171;-70
2022/02/16 06:11:52;;;;;;;9.80;6.22;;;;;;;8.78;100.00;99426.34;5037379;28;20013;-71
2022/02/16 06:14:19;;;;;;;6.65;5.95;;;;;;;8.74;100.00;99417.44;5057086;28;20049;-74
2022/02/16 06:16:44;;;;;;;8.10;6.50;;;;;;;8.76;100.00;99420.59;5057562;28;20475;-73
2022/02/16 06:19:10;;;;;;;6.80;5.97;;;;;;;8.79;100.00;99415.03;5057872;28;20112;-73
2022/02/16 06:21:35;;;;;;;8.10;6.22;;;;;;;8.83;100.00;99421.34;5040075;28;20021;-71
2022/02/16 06:24:00;;;;;;;8.32;6.18;;;;;;;8.84;100.00;99417.78;5040769;28;20063;-72
2022/02/16 06:26:25;;;;;;;7.18;5.72;;;;;;;8.92;100.00;99420.09;5059077;28;20025;-71
2022/02/16 06:28:51;;;;;;;5.82;5.22;;;;;;;9.01;100.00;99430.94;5058674;28;20054;-71
2022/02/16 06:31:16;;;;;;;6.45;5.72;;;;;;;8.93;100.00;99405.44;5057078;28;20020;-73
2022/02/16 06:33:42;;;;;;;6.40;5.68;;;;;;;8.96;100.00;99428.97;5037091;28;20016;-71
2022/02/16 06:36:07;;;;;;;6.57;4.85;;;;;;;9.02;100.00;99427.34;5054798;28;20032;-71
2022/02/16 06:38:32;;;;;;;6.15;5.15;;;;;;;9.05;100.00;99416.63;5036943;28;20535;-71
2022/02/16 06:40:57;;;;;;;5.20;4.70;;;;;;;9.01;100.00;99405.19;5036873;28;20036;-70
2022/02/16 06:43:23;;;;;;;6.07;4.28;;;;;;;9.04;100.00;99409.91;5036936;28;20028;-71
2022/02/16 06:45:48;;;;;;;5.57;4.72;;;;;;;9.06;100.00;99409.69;5054719;28;20047;-70
2022/02/16 06:48:14;;;;;;;5.22;4.25;;;;;;;9.07;100.00;99409.50;5054129;28;20028;-72
2022/02/16 06:50:39;;;;;;;5.95;3.88;;;;;;;9.10;100.00;99405.72;5054481;28;20025;-71
2022/02/16 06:53:04;;;;;;;4.80;4.07;;;;;;;9.17;100.00;99409.00;5053992;28;20048;-71
2022/02/16 06:55:30;;;;;;;5.63;3.85;;;;;;;9.13;100.00;99423.31;5053372;28;20530;-71
2022/02/16 06:57:57;;;;;;;5.00;3.67;;;;;;;9.16;100.00;99417.75;5053746;28;20388;-70
2022/02/16 07:00:22;;;;;;;4.25;3.33;;;;;;;9.17;100.00;99424.47;5053833;28;20098;-72
2022/02/16 07:02:48;;;;;;;4.45;3.20;;;;;;;9.20;100.00;99422.25;5053636;28;20434;-72
2022/02/16 07:05:14;;;;;;;3.72;2.90;;;;;;;9.20;100.00;99411.16;5053111;28;20025;-71
2022/02/16 07:07:40;;;;;;;3.30;2.38;;;;;;;9.20;100.00;99432.56;5052509;28;20082;-72
2022/02/16 07:10:06;;;;;;;3.92;2.88;;;;;;;9.23;100.00;99424.41;5053662;28;20033;-72
2022/02/16 07:12:32;;;;;;;3.42;2.65;;;;;;;9.26;100.00;99430.94;5035415;28;20091;-70
2022/02/16 07:14:57;;;;;;;3.65;2.50;;;;;;;9.23;100.00;99426.97;5019051;28;20020;-70
2022/02/16 07:17:24;;;;;;;3.42;2.67;;;;;;;9.32;100.00;99422.38;5035538;28;20090;-71
2022/02/16 07:19:49;;;;;;;3.83;2.60;;;;;;;9.25;100.00;99406.16;5035508;28;20032;-70
2022/02/16 07:22:16;;;;;;;6.03;2.90;;;;;;;9.24;100.00;99399.44;5035396;28;20025;-70
2022/02/16 07:24:41;;;;;;;3.83;2.95;;;;;;;9.21;100.00;99397.28;5053070;28;20033;-70
2022/02/16 07:27:06;;;;;;;4.03;2.35;;;;;;;9.26;100.00;99397.41;5052721;28;20035;-71
2022/02/16 07:29:31;;;;;;;3.08;2.40;;;;;;;9.24;100.00;99387.34;5052851;28;20029;-72
2022/02/16 07:31:58;;;;;;;3.25;2.70;;;;;;;9.34;100.00;99410.06;5035106;28;20418;-71
2022/02/16 07:34:26;;;;;;;3.70;2.67;;;;;;;9.32;100.00;99411.25;5053204;28;20108;-69
2022/02/16 07:36:52;;;;;;;5.18;2.80;;;;;;;9.36;100.00;99428.69;5036136;28;20017;-70
2022/02/16 07:39:17;;;;;;;5.28;3.08;;;;;;;9.34;100.00;99414.41;5053119;28;20472;-70
2022/02/16 07:41:43;;;;;;;4.18;2.85;;;;;;;9.38;100.00;99421.53;5037016;28;20079;-70
2022/02/16 07:44:08;;;;;;;4.15;2.80;;;;;;;9.37;100.00;99419.94;5035385;28;20029;-70
2022/02/16 07:46:33;;;;;;;3.45;2.60;;;;;;;9.34;100.00;99419.56;5053122;28;20108;-70
2022/02/16 07:48:58;;;;;;;3.38;2.60;;;;;;;9.36;100.00;99433.06;5051224;28;20017;-71
2022/02/16 07:51:23;;;;;;;4.15;2.80;;;;;;;9.43;100.00;99431.97;5034846;28;20025;-72
2022/02/16 07:53:49;;;;;;;4.70;2.90;;;;;;;9.37;100.00;99437.97;5037208;28;20376;-71
2022/02/16 07:56:15;;;;;;;3.40;2.70;;;;;;;9.39;100.00;99435.22;5035012;28;20082;-71
2022/02/16 07:58:40;;;;;;;4.30;2.92;;;;;;;9.38;100.00;99441.34;5052780;28;20028;-70
2022/02/16 08:01:05;;;;;;;3.35;2.88;;;;;;;9.46;100.00;99444.44;5054404;28;20029;-71
2022/02/16 08:03:31;;;;;;;5.05;2.97;;;;;;;9.50;100.00;99447.41;5039519;28;20096;-71
2022/02/16 08:05:56;;;;;;;4.47;2.78;;;;;;;9.52;100.00;99462.66;5056870;28;20025;-71
2022/02/16 08:08:22;;;;;;;4.95;3.40;;;;;;;9.51;100.00;99468.81;5055033;28;20032;-71
2022/02/16 08:10:50;;;;;;;6.38;3.92;;;;;;;9.56;100.00;99461.25;5039016;28;20448;-71
2022/02/16 08:13:17;;;;;;;6.20;4.47;;;;;;;9.58;100.00;99466.97;5039134;28;20049;-71
2022/02/16 08:15:42;;;;;;;6.90;4.75;;;;;;;9.61;100.00;99462.19;5056519;28;20079;-69
2022/02/16 08:18:08;;;;;;;8.63;5.22;;;;;;;9.74;100.00;99474.16;5039075;28;20484;-71
2022/02/16 08:20:33;;;;;;;7.68;5.45;;;;;;;9.76;100.00;99467.00;5063316;28;20029;-71
2022/02/16 08:22:58;;;;;;;13.35;5.50;;;;;;;9.78;100.00;99470.19;5056944;28;20037;-71
2022/02/16 08:25:24;;;;;;;9.75;5.70;;;;;;;9.92;100.00;99488.88;5058801;28;20025;-71
2022/02/16 08:27:49;;;;;;;11.80;5.55;;;;;;;9.98;100.00;99474.31;5038928;28;20031;-72
2022/02/16 08:30:15;;;;;;;14.45;5.20;;;;;;;9.99;100.00;99463.81;5057348;28;20123;-72
2022/02/16 08:32:41;;;;;;;10.75;5.13;;;;;;;10.04;100.00;99461.38;5056879;28;20071;-70
2022/02/16 08:35:09;;;;;;;10.18;4.47;;;;;;;10.12;100.00;99455.91;5056789;28;20094;-70
2022/02/16 08:37:35;;;;;;;11.57;3.92;;;;;;;10.17;100.00;99447.53;5057291;28;20028;-70
2022/02/16 08:40:01;;;;;;;13.63;4.13;;;;;;;10.23;100.00;99440.69;5036961;28;20017;-70
2022/02/16 08:42:26;;;;;;;9.88;4.00;;;;;;;10.35;100.00;99432.03;5036451;28;20059;-69
2022/02/16 08:44:51;;;;;;;10.60;4.05;;;;;;;10.41;100.00;99452.81;5036103;28;20072;-71
2022/02/16 08:47:17;;;;;;;14.90;3.75;;;;;;;10.44;100.00;99454.97;5036279;28;20059;-70
2022/02/16 08:49:44;;;;;;;12.20;3.33;;;;;;;10.46;100.00;99461.50;5053933;28;20021;-72
2022/02/16 08:52:10;;;;;;;13.02;3.28;;;;;;;10.51;100.00;99458.28;5036146;28;20032;-72
2022/02/16 08:54:35;;;;;;;18.42;3.72;;;;;;;10.51;100.00;99463.44;5036333;28;20025;-71
2022/02/16 08:57:03;;;;;;;12.63;3.00;;;;;;;10.54;100.00;99463.78;5036610;28;20052;-71
2022/02/16 08:59:29;;;;;;;11.65;2.88;;;;;;;10.60;99.81;99469.88;5038080;28;20024;-70
2022/02/16 09:01:54;;;;;;;14.20;3.08;;;;;;;10.65;99.26;99467.44;5055840;28;20054;-70
2022/02/16 09:04:19;;;;;;;23.65;3.65;;;;;;;10.77;99.08;99457.91;5055635;28;20075;-70
2022/02/16 09:07:27;;;;;;;13.07;3.47;;;;;;;10.81;98.54;99471.19;5037742;28;20025;-70
2022/02/16 09:09:33;;;;;;;14.68;3.50;;;;;;;10.78;98.15;99472.41;5056587;28;20037;-70
2022/02/16 09:11:58;;;;;;;13.38;3.20;;;;;;;10.75;98.46;99495.31;5055255;28;20444;-70
2022/02/16 09:14:24;;;;;;;16.00;3.85;;;;;;;10.78;98.35;99489.69;5055546;28;20096;-71
2022/02/16 09:16:49;;;;;;;20.05;3.50;;;;;;;10.73;98.68;99495.56;5037638;28;20052;-71
2022/02/16 09:19:14;;;;;;;17.42;3.42;;;;;;;10.84;98.38;99488.81;5055170;28;20029;-71
2022/02/16 09:21:39;;;;;;;22.15;3.88;;;;;;;10.87;97.91;99495.34;5037474;28;20503;-73
2022/02/16 09:24:05;;;;;;;14.05;3.03;;;;;;;10.87;98.11;99492.78;5037300;28;20024;-71
2022/02/16 09:26:32;;;;;;;13.13;3.35;;;;;;;10.91;98.37;99492.13;5038521;28;20064;-71
2022/02/16 09:28:58;;;;;;;21.98;3.75;;;;;;;10.93;97.44;99495.25;5062622;28;20066;-70
2022/02/16 09:31:23;;;;;;;20.58;3.25;;;;;;;11.01;97.44;99489.00;5055037;28;20036;-68
2022/02/16 09:33:48;;;;;;;17.85;3.10;;;;;;;11.02;97.32;99477.66;5037232;28;20509;-70
2022/02/16 09:36:14;;;;;;;21.00;3.72;;;;;;;10.98;97.19;99461.00;5055366;28;20060;-71
2022/02/16 09:38:39;;;;;;;21.52;3.50;;;;;;;11.03;97.47;99471.47;5054403;28;20024;-71
2022/02/16 09:41:08;;;;;;;21.42;3.80;;;;;;;11.11;97.08;99476.31;5035512;28;20056;-72
2022/02/16 09:43:34;;;;;;;23.73;4.57;;;;;;;11.22;96.82;99482.50;5052911;28;20430;-70
2022/02/16 09:45:59;;;;;;;19.40;3.58;;;;;;;11.29;95.79;99480.63;5035377;28;20029;-71
2022/02/16 09:48:25;;;;;;;22.08;3.55;;;;;;;11.43;95.06;99473.44;5053375;28;20028;-70
2022/02/16 09:50:53;;;;;;;22.33;3.03;;;;;;;11.34;95.07;99485.91;5035190;28;20105;-70
2022/02/16 09:53:20;;;;;;;18.13;3.42;;;;;;;11.43;95.15;99476.03;5035244;28;20359;-70
2022/02/16 09:55:45;;;;;;;25.10;3.28;;;;;;;11.50;95.19;99482.66;5053665;28;20111;-72
2022/02/16 09:58:11;;;;;;;21.17;3.35;;;;;;;11.60;94.21;99479.53;5035233;28;20507;-71
2022/02/16 10:00:37;;;;;;;22.45;3.42;;;;;;;11.67;94.47;99484.59;5053386;28;20021;-70
2022/02/16 10:03:10;;;;;;;18.48;3.30;;;;;;;11.88;93.36;99472.88;5054408;28;20028;-70
2022/02/16 10:05:36;;;;;;;15.98;2.80;;;;;;;11.87;92.75;99453.22;5054369;28;20475;-70
2022/02/16 10:08:01;;;;;;;18.25;2.90;;;;;;;11.95;92.89;99458.81;5053662;28;20059;-71
2022/02/16 10:10:27;;;;;;;14.82;2.97;;;;;;;12.22;91.67;99442.78;5036062;28;20021;-72
2022/02/16 10:12:54;;;;;;;20.95;3.75;;;;;;;12.27;92.07;99442.09;5035688;28;20048;-72
2022/02/16 10:15:39;;;;;;;16.73;3.08;;;;;;;12.27;90.99;99442.88;5034749;28;20110;-72
2022/02/16 10:18:15;;;;;;;16.58;3.55;;;;;;;12.14;90.94;99404.28;5051716;28;20056;-72
2022/02/16 10:20:44;;;;;;;18.10;2.65;;;;;;;11.99;91.48;99409.97;5051241;28;20105;-70
2022/02/16 10:23:10;;;;;;;15.75;2.65;;;;;;;12.07;92.22;99432.13;5035200;28;20029;-71
2022/02/16 10:25:36;;;;;;;14.68;2.53;;;;;;;11.99;91.89;99438.44;5036616;28;20467;-70
2022/02/16 10:28:11;;;;;;;15.10;2.65;;;;;;;11.85;92.18;99426.72;5053712;28;20475;-70
2022/02/16 10:30:55;;;;;;;15.57;2.70;;;;;;;11.82;92.52;99430.56;5053109;28;20081;-72
2022/02/16 10:33:33;;;;;;;18.02;2.85;;;;;;;11.82;92.50;99422.78;5054199;28;20025;-69
2022/02/16 10:36:07;;;;;;;13.25;2.60;;;;;;;11.87;92.40;99422.16;5054469;28;20422;-71
2022/02/16 10:38:55;;;;;;;12.45;2.83;;;;;;;11.82;92.53;99416.81;5053906;28;20023;-70
2022/02/16 10:41:24;;;;;;;16.85;2.58;;;;;;;11.80;92.73;99413.69;5054321;28;20369;-70
2022/02/16 10:43:50;;;;;;;13.68;2.75;;;;;;;11.81;92.67;99410.09;5054108;28;20071;-70
2022/02/16 10:46:29;;;;;;;17.17;2.90;;;;;;;11.72;93.12;99397.50;5054252;28;20435;-70
2022/02/16 10:49:16;;;;;;;17.00;3.13;;;;;;;11.74;93.43;99392.88;5036104;28;20159;-70
2022/02/16 10:51:43;;;;;;;15.93;2.90;;;;;;;11.69;93.69;99381.66;5054100;28;20488;-71
2022/02/16 10:54:13;;;;;;;8.55;2.45;;;;;;;11.73;93.46;99393.88;5054021;28;20021;-70
2022/02/16 10:56:41;;;;;;;10.05;2.55;;;;;;;11.71;93.49;99410.69;5054586;28;20032;-70
2022/02/16 10:59:06;;;;;;;14.93;2.88;;;;;;;11.78;93.27;99432.03;5035992;28;20032;-70
2022/02/16 11:01:34;;;;;;;13.75;2.50;;;;;;;11.74;94.26;99431.72;5019177;28;20040;-71
2022/02/16 11:04:03;;;;;;;10.02;2.47;;;;;;;11.85;93.05;99443.06;5034739;28;20508;-71
2022/02/16 11:06:29;;;;;;;10.95;2.20;;;;;;;11.89;93.23;99457.16;5035323;28;20074;-70
2022/02/16 11:08:56;;;;;;;15.10;2.40;;;;;;;11.77;93.47;99464.13;5035674;28;20039;-69
2022/02/16 11:11:22;;;;;;;8.85;2.33;;;;;;;11.82;93.21;99471.19;5053675;28;20063;-69
2022/02/16 11:13:47;;;;;;;11.90;2.47;;;;;;;11.78;93.24;99476.03;5053254;28;20093;-69
2022/02/16 11:16:13;;;;;;;12.27;2.55;;;;;;;11.81;93.09;99479.97;5035663;28;20492;-70
2022/02/16 11:18:46;;;;;;;13.02;2.50;;;;;;;11.96;92.79;99488.06;5035623;28;20377;-71
2022/02/16 11:21:14;;;;;;;14.95;3.47;;;;;;;11.86;91.98;99485.28;5035602;28;20116;-70
2022/02/16 11:23:55;;;;;;;16.20;3.03;;;;;;;11.73;93.39;99466.34;5035666;28;20067;-72